Concaran, Argentina
Current Conditions -  °F | °C
As of 8:00 PM on Tuesday 25 Nov 2014 (Local Time) from SAOC Reporting Station
Clear Clear  
Wind Chill: 72°   Ceiling: Unl
Heat Index: 72°   Visibility: 6mi
Dew Point: 46°   Wind: 6mph
Humidity: 41%   Direction: 50°NE
Pressure: 29.85"   Gusts: NA
Location:  32.57°S, 65.25°W
Report Text: SAOC 252300Z 05005KT CAVOK 22/08 Q1011
Loading
Personal Weather Stations






























Interactive Weather Map New forecast layout! Learn more

10-Day Weather Forecast

Advertisements
Track Severe Weather on mobile